sensor_id;sensor_type;location;lat;lon;timestamp;P1;durP1;ratioP1;P2;durP2;ratioP2
15500;SDS011;7852;52.228;5.990;2023-08-12T00:04:20;13;;;11.8;;
15500;SDS011;7852;52.228;5.990;2023-08-12T00:04:20;13.1;;;12;;
15500;SDS011;7852;52.228;5.990;2023-08-12T00:04:20;13.1;;;12.3;;
15500;SDS011;7852;52.228;5.990;2023-08-12T00:04:20;13.2;;;12.3;;
15500;SDS011;7852;52.228;5.990;2023-08-12T00:04:21;12.5;;;11.6;;
15500;SDS011;7852;52.228;5.990;2023-08-12T00:05:20;12.5;;;11.4;;
15500;SDS011;7852;52.228;5.990;2023-08-12T00:06:20;12.7;;;11.5;;
15500;SDS011;7852;52.228;5.990;2023-08-12T00:07:20;12.6;;;11.7;;
15500;SDS011;7852;52.228;5.990;2023-08-12T00:08:20;12.1;;;11.1;;
15500;SDS011;7852;52.228;5.990;2023-08-12T00:09:20;13.3;;;12.3;;
15500;SDS011;7852;52.228;5.990;2023-08-12T00:10:20;13.9;;;12.7;;
15500;SDS011;7852;52.228;5.990;2023-08-12T00:11:20;12.6;;;11.7;;
15500;SDS011;7852;52.228;5.990;2023-08-12T00:12:20;13.2;;;12.2;;
15500;SDS011;7852;52.228;5.990;2023-08-12T00:13:20;11.9;;;11;;
15500;SDS011;7852;52.228;5.990;2023-08-12T00:14:20;11.9;;;11.1;;
15500;SDS011;7852;52.228;5.990;2023-08-12T00:15:20;13;;;11.9;;
15500;SDS011;7852;52.228;5.990;2023-08-12T00:16:20;13;;;12;;
15500;SDS011;7852;52.228;5.990;2023-08-12T00:17:20;11.2;;;10.4;;
15500;SDS011;7852;52.228;5.990;2023-08-12T00:18:20;12.2;;;11.3;;
15500;SDS011;7852;52.228;5.990;2023-08-12T00:19:20;12;;;11.2;;
15500;SDS011;7852;52.228;5.990;2023-08-12T00:20:20;12.2;;;11.2;;
15500;SDS011;7852;52.228;5.990;2023-08-12T00:21:20;11.7;;;10.9;;
15500;SDS011;7852;52.228;5.990;2023-08-12T00:22:20;12.7;;;11.6;;
15500;SDS011;7852;52.228;5.990;2023-08-12T00:23:20;12.1;;;11.2;;
15500;SDS011;7852;52.228;5.990;2023-08-12T00:24:20;12.7;;;11.4;;
15500;SDS011;7852;52.228;5.990;2023-08-12T00:25:20;12.9;;;11.7;;
15500;SDS011;7852;52.228;5.990;2023-08-12T00:26:20;11.9;;;10.9;;
15500;SDS011;7852;52.228;5.990;2023-08-12T00:27:20;11.7;;;10.8;;
15500;SDS011;7852;52.228;5.990;2023-08-12T00:28:20;13.1;;;12;;
15500;SDS011;7852;52.228;5.990;2023-08-12T00:29:20;13.4;;;12.2;;
15500;SDS011;7852;52.228;5.990;2023-08-12T00:30:20;12.8;;;11.7;;
15500;SDS011;7852;52.228;5.990;2023-08-12T00:31:20;12.9;;;11.6;;
15500;SDS011;7852;52.228;5.990;2023-08-12T00:32:20;12.6;;;11.3;;
15500;SDS011;7852;52.228;5.990;2023-08-12T00:33:20;12.6;;;11.5;;
15500;SDS011;7852;52.228;5.990;2023-08-12T00:34:20;12.4;;;11.3;;
15500;SDS011;7852;52.228;5.990;2023-08-12T00:35:20;11.9;;;10.8;;
15500;SDS011;7852;52.228;5.990;2023-08-12T00:36:20;12.7;;;11.5;;
15500;SDS011;7852;52.228;5.990;2023-08-12T00:37:20;12.7;;;11.7;;
15500;SDS011;7852;52.228;5.990;2023-08-12T00:38:20;12.6;;;11.5;;
15500;SDS011;7852;52.228;5.990;2023-08-12T00:39:20;13.4;;;12;;
15500;SDS011;7852;52.228;5.990;2023-08-12T00:40:20;13.5;;;12.3;;
15500;SDS011;7852;52.228;5.990;2023-08-12T00:41:20;12.6;;;11.5;;
15500;SDS011;7852;52.228;5.990;2023-08-12T00:42:20;12.4;;;11.4;;
15500;SDS011;7852;52.228;5.990;2023-08-12T00:43:20;12.8;;;11.6;;
15500;SDS011;7852;52.228;5.990;2023-08-12T00:44:20;11.3;;;10.4;;
15500;SDS011;7852;52.228;5.990;2023-08-12T00:45:20;12.1;;;11.1;;
15500;SDS011;7852;52.228;5.990;2023-08-12T00:46:20;13.2;;;11.8;;
15500;SDS011;7852;52.228;5.990;2023-08-12T00:47:20;12.1;;;11;;
15500;SDS011;7852;52.228;5.990;2023-08-12T00:48:20;13.9;;;11.6;;
15500;SDS011;7852;52.228;5.990;2023-08-12T00:49:20;12.1;;;11;;
15500;SDS011;7852;52.228;5.990;2023-08-12T00:50:20;12;;;10.9;;
15500;SDS011;7852;52.228;5.990;2023-08-12T00:51:20;12.5;;;11.2;;
15500;SDS011;7852;52.228;5.990;2023-08-12T00:52:20;13;;;11.7;;
15500;SDS011;7852;52.228;5.990;2023-08-12T00:53:20;12.6;;;11.4;;
15500;SDS011;7852;52.228;5.990;2023-08-12T00:54:20;12.4;;;11.3;;
15500;SDS011;7852;52.228;5.990;2023-08-12T00:55:20;13.6;;;12.3;;
15500;SDS011;7852;52.228;5.990;2023-08-12T00:56:20;13.2;;;11.9;;
15500;SDS011;7852;52.228;5.990;2023-08-12T00:57:20;13.4;;;12.2;;
15500;SDS011;7852;52.228;5.990;2023-08-12T00:58:20;13.8;;;12.5;;
15500;SDS011;7852;52.228;5.990;2023-08-12T00:59:20;13.5;;;12.2;;
15500;SDS011;7852;52.228;5.990;2023-08-12T01:00:20;14.3;;;13.1;;
15500;SDS011;7852;52.228;5.990;2023-08-12T01:02:20;14.5;;;13.3;;
15500;SDS011;7852;52.228;5.990;2023-08-12T01:03:20;13.5;;;12.2;;
15500;SDS011;7852;52.228;5.990;2023-08-12T01:04:20;13.7;;;12.4;;
15500;SDS011;7852;52.228;5.990;2023-08-12T01:05:20;13;;;11.9;;
15500;SDS011;7852;52.228;5.990;2023-08-12T01:06:20;13;;;11.8;;
15500;SDS011;7852;52.228;5.990;2023-08-12T01:07:20;13.4;;;12.2;;
15500;SDS011;7852;52.228;5.990;2023-08-12T01:08:20;14.1;;;12.9;;
15500;SDS011;7852;52.228;5.990;2023-08-12T01:09:20;13;;;11.9;;
15500;SDS011;7852;52.228;5.990;2023-08-12T01:10:20;13.3;;;12;;
15500;SDS011;7852;52.228;5.990;2023-08-12T01:11:20;13.2;;;12.2;;
15500;SDS011;7852;52.228;5.990;2023-08-12T01:12:22;13.5;;;12.2;;
15500;SDS011;7852;52.228;5.990;2023-08-12T01:13:23;13.7;;;12.4;;
15500;SDS011;7852;52.228;5.990;2023-08-12T01:14:22;12.7;;;11.7;;
15500;SDS011;7852;52.228;5.990;2023-08-12T01:15:20;13.1;;;11.8;;
15500;SDS011;7852;52.228;5.990;2023-08-12T01:16:20;14;;;12.7;;
15500;SDS011;7852;52.228;5.990;2023-08-12T01:17:20;13.2;;;11.9;;
15500;SDS011;7852;52.228;5.990;2023-08-12T01:18:20;13.5;;;12.4;;
15500;SDS011;7852;52.228;5.990;2023-08-12T01:19:21;12.6;;;11.5;;
15500;SDS011;7852;52.228;5.990;2023-08-12T01:20:20;13.7;;;12.4;;
15500;SDS011;7852;52.228;5.990;2023-08-12T01:21:21;12.4;;;11.3;;
15500;SDS011;7852;52.228;5.990;2023-08-12T01:22:20;13.8;;;12.3;;
15500;SDS011;7852;52.228;5.990;2023-08-12T01:23:20;12.7;;;11.6;;
15500;SDS011;7852;52.228;5.990;2023-08-12T01:24:21;13.5;;;12.4;;
15500;SDS011;7852;52.228;5.990;2023-08-12T01:25:20;13.2;;;12.1;;
15500;SDS011;7852;52.228;5.990;2023-08-12T01:26:20;12.8;;;11.6;;
15500;SDS011;7852;52.228;5.990;2023-08-12T01:27:20;13.4;;;12.3;;
15500;SDS011;7852;52.228;5.990;2023-08-12T01:28:20;13.5;;;12.3;;
15500;SDS011;7852;52.228;5.990;2023-08-12T01:29:20;12.7;;;11.6;;
15500;SDS011;7852;52.228;5.990;2023-08-12T01:30:20;12.5;;;11.5;;
15500;SDS011;7852;52.228;5.990;2023-08-12T01:31:22;13.1;;;11.9;;
15500;SDS011;7852;52.228;5.990;2023-08-12T01:32:22;13.9;;;12.7;;
15500;SDS011;7852;52.228;5.990;2023-08-12T01:33:21;13.4;;;12.1;;
15500;SDS011;7852;52.228;5.990;2023-08-12T01:34:20;13.5;;;12.4;;
15500;SDS011;7852;52.228;5.990;2023-08-12T01:35:20;13.4;;;12.2;;
15500;SDS011;7852;52.228;5.990;2023-08-12T01:36:20;12.6;;;11.5;;
15500;SDS011;7852;52.228;5.990;2023-08-12T01:37:21;13.2;;;12;;
15500;SDS011;7852;52.228;5.990;2023-08-12T01:38:20;14.2;;;12.8;;
15500;SDS011;7852;52.228;5.990;2023-08-12T01:39:20;13.3;;;12.2;;
15500;SDS011;7852;52.228;5.990;2023-08-12T01:40:20;12.7;;;11.6;;
15500;SDS011;7852;52.228;5.990;2023-08-12T01:41:20;13.8;;;12.7;;
15500;SDS011;7852;52.228;5.990;2023-08-12T01:42:20;12.6;;;11.5;;
15500;SDS011;7852;52.228;5.990;2023-08-12T01:43:20;13.2;;;12.1;;
15500;SDS011;7852;52.228;5.990;2023-08-12T01:44:20;14.4;;;11.5;;
15500;SDS011;7852;52.228;5.990;2023-08-12T01:45:20;15.1;;;13.6;;
15500;SDS011;7852;52.228;5.990;2023-08-12T01:46:21;13.5;;;12.3;;
15500;SDS011;7852;52.228;5.990;2023-08-12T01:47:20;13.4;;;12.3;;
15500;SDS011;7852;52.228;5.990;2023-08-12T01:48:20;14;;;12.8;;
15500;SDS011;7852;52.228;5.990;2023-08-12T01:49:20;14;;;12.8;;
15500;SDS011;7852;52.228;5.990;2023-08-12T01:50:20;14;;;12.7;;
15500;SDS011;7852;52.228;5.990;2023-08-12T01:51:20;13.3;;;12.1;;
15500;SDS011;7852;52.228;5.990;2023-08-12T01:52:20;15.4;;;13.8;;
15500;SDS011;7852;52.228;5.990;2023-08-12T01:53:20;14.4;;;13.1;;
15500;SDS011;7852;52.228;5.990;2023-08-12T01:54:20;13.9;;;12.5;;
15500;SDS011;7852;52.228;5.990;2023-08-12T01:55:20;14.2;;;12.7;;
15500;SDS011;7852;52.228;5.990;2023-08-12T01:56:20;14;;;12.6;;
15500;SDS011;7852;52.228;5.990;2023-08-12T01:57:20;14.4;;;12.9;;
15500;SDS011;7852;52.228;5.990;2023-08-12T01:58:20;14.2;;;12.9;;
15500;SDS011;7852;52.228;5.990;2023-08-12T01:59:20;13;;;11.8;;
15500;SDS011;7852;52.228;5.990;2023-08-12T02:00:20;14.1;;;12.6;;
15500;SDS011;7852;52.228;5.990;2023-08-12T02:01:20;14.7;;;13.4;;
15500;SDS011;7852;52.228;5.990;2023-08-12T02:02:20;14.6;;;13.3;;
15500;SDS011;7852;52.228;5.990;2023-08-12T02:03:20;14.5;;;13;;
15500;SDS011;7852;52.228;5.990;2023-08-12T02:04:20;15.5;;;14.1;;
15500;SDS011;7852;52.228;5.990;2023-08-12T02:05:20;14.5;;;13.1;;
15500;SDS011;7852;52.228;5.990;2023-08-12T02:06:20;17.1;;;15.5;;
15500;SDS011;7852;52.228;5.990;2023-08-12T02:07:20;14.8;;;13.3;;
15500;SDS011;7852;52.228;5.990;2023-08-12T02:08:20;14;;;12.7;;
15500;SDS011;7852;52.228;5.990;2023-08-12T02:09:20;15.5;;;14;;
15500;SDS011;7852;52.228;5.990;2023-08-12T02:10:20;14.7;;;13.3;;
15500;SDS011;7852;52.228;5.990;2023-08-12T02:11:20;14.4;;;13;;
15500;SDS011;7852;52.228;5.990;2023-08-12T02:12:20;13;;;11.9;;
15500;SDS011;7852;52.228;5.990;2023-08-12T02:13:20;13.7;;;12.4;;
15500;SDS011;7852;52.228;5.990;2023-08-12T02:14:20;14.1;;;12.7;;
15500;SDS011;7852;52.228;5.990;2023-08-12T02:15:20;14.7;;;13.3;;
15500;SDS011;7852;52.228;5.990;2023-08-12T02:16:20;16.6;;;13.1;;
15500;SDS011;7852;52.228;5.990;2023-08-12T02:17:20;14.5;;;13.1;;
15500;SDS011;7852;52.228;5.990;2023-08-12T02:18:20;14.7;;;13.5;;
15500;SDS011;7852;52.228;5.990;2023-08-12T02:19:20;15.3;;;13.8;;
15500;SDS011;7852;52.228;5.990;2023-08-12T02:20:20;15.5;;;14;;
15500;SDS011;7852;52.228;5.990;2023-08-12T02:21:20;16.4;;;14.8;;
15500;SDS011;7852;52.228;5.990;2023-08-12T02:22:21;16;;;14.5;;
15500;SDS011;7852;52.228;5.990;2023-08-12T02:23:20;15.1;;;13.7;;
15500;SDS011;7852;52.228;5.990;2023-08-12T02:24:20;16.1;;;14.4;;
15500;SDS011;7852;52.228;5.990;2023-08-12T02:25:20;14.1;;;12.8;;
15500;SDS011;7852;52.228;5.990;2023-08-12T02:26:20;14.9;;;13.5;;
15500;SDS011;7852;52.228;5.990;2023-08-12T02:27:20;14.1;;;12.9;;
15500;SDS011;7852;52.228;5.990;2023-08-12T02:28:20;14.9;;;13.4;;
15500;SDS011;7852;52.228;5.990;2023-08-12T02:29:20;14.8;;;13.5;;
15500;SDS011;7852;52.228;5.990;2023-08-12T02:30:20;14.8;;;13.4;;
15500;SDS011;7852;52.228;5.990;2023-08-12T02:31:20;15.4;;;13.8;;
15500;SDS011;7852;52.228;5.990;2023-08-12T02:32:20;14.5;;;13.2;;
15500;SDS011;7852;52.228;5.990;2023-08-12T02:33:20;15.7;;;14;;
15500;SDS011;7852;52.228;5.990;2023-08-12T02:34:20;14.1;;;12.9;;
15500;SDS011;7852;52.228;5.990;2023-08-12T02:35:20;14.7;;;13.4;;
15500;SDS011;7852;52.228;5.990;2023-08-12T02:36:20;14.8;;;13.4;;
15500;SDS011;7852;52.228;5.990;2023-08-12T02:37:20;16.7;;;15;;
15500;SDS011;7852;52.228;5.990;2023-08-12T02:38:20;16.3;;;13.9;;
15500;SDS011;7852;52.228;5.990;2023-08-12T02:39:20;15;;;13.5;;
15500;SDS011;7852;52.228;5.990;2023-08-12T02:40:20;15.3;;;13.8;;
15500;SDS011;7852;52.228;5.990;2023-08-12T02:41:20;16.5;;;14.5;;
15500;SDS011;7852;52.228;5.990;2023-08-12T02:42:20;14.7;;;13.2;;
15500;SDS011;7852;52.228;5.990;2023-08-12T02:43:20;14.5;;;13.2;;
15500;SDS011;7852;52.228;5.990;2023-08-12T02:44:20;15.8;;;14.3;;
15500;SDS011;7852;52.228;5.990;2023-08-12T02:45:20;15.8;;;14.3;;
15500;SDS011;7852;52.228;5.990;2023-08-12T02:46:20;16;;;14.5;;
15500;SDS011;7852;52.228;5.990;2023-08-12T02:47:20;15.8;;;12.6;;
15500;SDS011;7852;52.228;5.990;2023-08-12T02:48:20;14.9;;;13.5;;
15500;SDS011;7852;52.228;5.990;2023-08-12T02:49:20;14;;;12.8;;
15500;SDS011;7852;52.228;5.990;2023-08-12T02:50:20;12.6;;;11.4;;
15500;SDS011;7852;52.228;5.990;2023-08-12T02:51:20;13.7;;;12.6;;
15500;SDS011;7852;52.228;5.990;2023-08-12T02:52:20;12.8;;;11.7;;
15500;SDS011;7852;52.228;5.990;2023-08-12T02:53:20;15.9;;;14.2;;
15500;SDS011;7852;52.228;5.990;2023-08-12T02:54:20;15.8;;;14.2;;
15500;SDS011;7852;52.228;5.990;2023-08-12T02:55:20;17.2;;;14.2;;
15500;SDS011;7852;52.228;5.990;2023-08-12T02:56:20;16.5;;;15;;
15500;SDS011;7852;52.228;5.990;2023-08-12T02:57:20;15.9;;;14.4;;
15500;SDS011;7852;52.228;5.990;2023-08-12T02:58:20;16.9;;;15.2;;
15500;SDS011;7852;52.228;5.990;2023-08-12T02:59:20;17.1;;;15.3;;
15500;SDS011;7852;52.228;5.990;2023-08-12T03:00:20;16;;;14.4;;
15500;SDS011;7852;52.228;5.990;2023-08-12T03:01:20;17.4;;;15.6;;
15500;SDS011;7852;52.228;5.990;2023-08-12T03:02:20;15.7;;;14.1;;
15500;SDS011;7852;52.228;5.990;2023-08-12T03:03:20;16.8;;;15;;
15500;SDS011;7852;52.228;5.990;2023-08-12T03:04:20;20.6;;;16.3;;
15500;SDS011;7852;52.228;5.990;2023-08-12T03:05:20;17.4;;;15.6;;
15500;SDS011;7852;52.228;5.990;2023-08-12T03:06:20;17.1;;;15.4;;
15500;SDS011;7852;52.228;5.990;2023-08-12T03:07:20;17.4;;;15.5;;
15500;SDS011;7852;52.228;5.990;2023-08-12T03:08:20;19.5;;;16.8;;
15500;SDS011;7852;52.228;5.990;2023-08-12T03:09:20;19.3;;;17.3;;
15500;SDS011;7852;52.228;5.990;2023-08-12T03:10:20;18.3;;;16.3;;
15500;SDS011;7852;52.228;5.990;2023-08-12T03:11:20;19.9;;;17.8;;
15500;SDS011;7852;52.228;5.990;2023-08-12T03:12:21;20.2;;;18.3;;
15500;SDS011;7852;52.228;5.990;2023-08-12T03:13:20;21.7;;;17.6;;
15500;SDS011;7852;52.228;5.990;2023-08-12T03:14:20;18.8;;;16.8;;
15500;SDS011;7852;52.228;5.990;2023-08-12T03:15:20;17.8;;;16.2;;
15500;SDS011;7852;52.228;5.990;2023-08-12T03:16:20;19.4;;;16;;
15500;SDS011;7852;52.228;5.990;2023-08-12T03:17:20;18.9;;;16.3;;
15500;SDS011;7852;52.228;5.990;2023-08-12T03:18:20;20;;;17.9;;
15500;SDS011;7852;52.228;5.990;2023-08-12T03:19:20;20.6;;;17;;
15500;SDS011;7852;52.228;5.990;2023-08-12T03:20:20;19.2;;;16.4;;
15500;SDS011;7852;52.228;5.990;2023-08-12T03:21:20;18.4;;;16.5;;
15500;SDS011;7852;52.228;5.990;2023-08-12T03:22:20;23.1;;;19.2;;
15500;SDS011;7852;52.228;5.990;2023-08-12T03:23:20;19.9;;;17.9;;
15500;SDS011;7852;52.228;5.990;2023-08-12T03:24:20;19.6;;;17.4;;
15500;SDS011;7852;52.228;5.990;2023-08-12T03:25:20;19.3;;;17.1;;
15500;SDS011;7852;52.228;5.990;2023-08-12T03:26:20;20.1;;;17;;
15500;SDS011;7852;52.228;5.990;2023-08-12T03:27:20;21.9;;;17.9;;
15500;SDS011;7852;52.228;5.990;2023-08-12T03:28:20;20.1;;;18;;
15500;SDS011;7852;52.228;5.990;2023-08-12T03:29:20;20.5;;;18.1;;
15500;SDS011;7852;52.228;5.990;2023-08-12T03:30:20;19.3;;;17.4;;
15500;SDS011;7852;52.228;5.990;2023-08-12T03:31:20;19.9;;;17.4;;
15500;SDS011;7852;52.228;5.990;2023-08-12T03:32:20;19.5;;;17.5;;
15500;SDS011;7852;52.228;5.990;2023-08-12T03:33:20;18.6;;;16.7;;
15500;SDS011;7852;52.228;5.990;2023-08-12T03:34:20;20.1;;;17.9;;
15500;SDS011;7852;52.228;5.990;2023-08-12T03:35:20;23.8;;;17.4;;
15500;SDS011;7852;52.228;5.990;2023-08-12T03:36:20;24.3;;;18;;
15500;SDS011;7852;52.228;5.990;2023-08-12T03:37:20;22.6;;;18.1;;
15500;SDS011;7852;52.228;5.990;2023-08-12T03:38:20;21.1;;;17.9;;
15500;SDS011;7852;52.228;5.990;2023-08-12T03:39:20;22.6;;;19.8;;
15500;SDS011;7852;52.228;5.990;2023-08-12T03:40:20;23.4;;;19.6;;
15500;SDS011;7852;52.228;5.990;2023-08-12T03:41:20;25.2;;;20.5;;
15500;SDS011;7852;52.228;5.990;2023-08-12T03:42:20;23;;;20.5;;
15500;SDS011;7852;52.228;5.990;2023-08-12T03:43:20;25.1;;;20.1;;
15500;SDS011;7852;52.228;5.990;2023-08-12T03:44:20;25.4;;;21;;
15500;SDS011;7852;52.228;5.990;2023-08-12T03:45:20;29.5;;;23.5;;
15500;SDS011;7852;52.228;5.990;2023-08-12T03:46:20;30.2;;;22.4;;
15500;SDS011;7852;52.228;5.990;2023-08-12T03:47:20;32.2;;;24.4;;
15500;SDS011;7852;52.228;5.990;2023-08-12T03:48:20;26.9;;;22.3;;
15500;SDS011;7852;52.228;5.990;2023-08-12T03:49:20;32.3;;;24.1;;
15500;SDS011;7852;52.228;5.990;2023-08-12T03:50:20;31.7;;;25.1;;
15500;SDS011;7852;52.228;5.990;2023-08-12T03:51:20;30.7;;;27;;
15500;SDS011;7852;52.228;5.990;2023-08-12T03:52:20;33.3;;;25.4;;
15500;SDS011;7852;52.228;5.990;2023-08-12T03:53:20;31.2;;;27.9;;
15500;SDS011;7852;52.228;5.990;2023-08-12T03:54:20;31.1;;;27.8;;
15500;SDS011;7852;52.228;5.990;2023-08-12T03:55:20;34.5;;;29.6;;
15500;SDS011;7852;52.228;5.990;2023-08-12T03:56:20;35.2;;;29.1;;
15500;SDS011;7852;52.228;5.990;2023-08-12T03:57:20;30.5;;;27.4;;
15500;SDS011;7852;52.228;5.990;2023-08-12T03:58:20;31;;;27.8;;
15500;SDS011;7852;52.228;5.990;2023-08-12T03:59:20;31.8;;;27.7;;
15500;SDS011;7852;52.228;5.990;2023-08-12T04:00:20;30.1;;;27.1;;
15500;SDS011;7852;52.228;5.990;2023-08-12T04:01:20;31.3;;;27.2;;
15500;SDS011;7852;52.228;5.990;2023-08-12T04:02:20;34.6;;;28.5;;
15500;SDS011;7852;52.228;5.990;2023-08-12T04:03:20;29.4;;;26.5;;
15500;SDS011;7852;52.228;5.990;2023-08-12T04:04:20;30.2;;;26.6;;
15500;SDS011;7852;52.228;5.990;2023-08-12T04:05:20;28.5;;;25.6;;
15500;SDS011;7852;52.228;5.990;2023-08-12T04:06:20;28.9;;;25.8;;
15500;SDS011;7852;52.228;5.990;2023-08-12T04:07:20;29.1;;;23.5;;
15500;SDS011;7852;52.228;5.990;2023-08-12T04:08:20;31.6;;;28.3;;
15500;SDS011;7852;52.228;5.990;2023-08-12T04:09:20;31.9;;;28;;
15500;SDS011;7852;52.228;5.990;2023-08-12T04:10:20;34.5;;;29.8;;
15500;SDS011;7852;52.228;5.990;2023-08-12T04:11:20;32.5;;;29.2;;
15500;SDS011;7852;52.228;5.990;2023-08-12T04:12:20;32.7;;;29.4;;
15500;SDS011;7852;52.228;5.990;2023-08-12T04:13:20;32.5;;;29;;
15500;SDS011;7852;52.228;5.990;2023-08-12T04:14:20;37.1;;;31.7;;
15500;SDS011;7852;52.228;5.990;2023-08-12T04:15:20;35.6;;;32.1;;
15500;SDS011;7852;52.228;5.990;2023-08-12T04:16:20;33.9;;;30.5;;
15500;SDS011;7852;52.228;5.990;2023-08-12T04:17:20;33.7;;;30.4;;
15500;SDS011;7852;52.228;5.990;2023-08-12T04:18:20;32.2;;;28.8;;
15500;SDS011;7852;52.228;5.990;2023-08-12T04:19:20;35;;;31.5;;
15500;SDS011;7852;52.228;5.990;2023-08-12T04:20:20;35;;;31.4;;
15500;SDS011;7852;52.228;5.990;2023-08-12T04:21:20;33.9;;;29.3;;
15500;SDS011;7852;52.228;5.990;2023-08-12T04:22:20;30.6;;;27.3;;
15500;SDS011;7852;52.228;5.990;2023-08-12T04:23:20;32.5;;;29.4;;
15500;SDS011;7852;52.228;5.990;2023-08-12T04:24:20;34.8;;;31.4;;
15500;SDS011;7852;52.228;5.990;2023-08-12T04:25:21;35.4;;;31.9;;
15500;SDS011;7852;52.228;5.990;2023-08-12T04:26:20;36.2;;;32.6;;
15500;SDS011;7852;52.228;5.990;2023-08-12T04:27:20;36.1;;;32.5;;
15500;SDS011;7852;52.228;5.990;2023-08-12T04:28:20;35.6;;;32.3;;
15500;SDS011;7852;52.228;5.990;2023-08-12T04:29:20;34.8;;;31.2;;
15500;SDS011;7852;52.228;5.990;2023-08-12T04:30:20;36.8;;;33.3;;
15500;SDS011;7852;52.228;5.990;2023-08-12T04:31:20;39.5;;;36.2;;
15500;SDS011;7852;52.228;5.990;2023-08-12T04:32:20;41.8;;;37.7;;
15500;SDS011;7852;52.228;5.990;2023-08-12T04:33:20;38.3;;;35.1;;
15500;SDS011;7852;52.228;5.990;2023-08-12T04:34:20;44.3;;;40;;
15500;SDS011;7852;52.228;5.990;2023-08-12T04:35:20;47.6;;;43.3;;
15500;SDS011;7852;52.228;5.990;2023-08-12T04:36:20;34.9;;;29.8;;
15500;SDS011;7852;52.228;5.990;2023-08-12T04:37:20;30.8;;;27.3;;
15500;SDS011;7852;52.228;5.990;2023-08-12T04:38:20;31.7;;;26.1;;
15500;SDS011;7852;52.228;5.990;2023-08-12T04:39:20;29.4;;;24.2;;
15500;SDS011;7852;52.228;5.990;2023-08-12T04:40:20;27.4;;;24.5;;
15500;SDS011;7852;52.228;5.990;2023-08-12T04:41:20;31.8;;;24.4;;
15500;SDS011;7852;52.228;5.990;2023-08-12T04:42:20;28;;;25.2;;
15500;SDS011;7852;52.228;5.990;2023-08-12T04:43:20;30.4;;;26.8;;
15500;SDS011;7852;52.228;5.990;2023-08-12T04:44:20;33.7;;;30.2;;
15500;SDS011;7852;52.228;5.990;2023-08-12T04:45:20;33.8;;;30.5;;
15500;SDS011;7852;52.228;5.990;2023-08-12T04:46:20;36;;;32.3;;
15500;SDS011;7852;52.228;5.990;2023-08-12T04:47:20;33.5;;;30;;
15500;SDS011;7852;52.228;5.990;2023-08-12T04:48:20;29.6;;;26.4;;
15500;SDS011;7852;52.228;5.990;2023-08-12T04:49:20;31.4;;;27.5;;
15500;SDS011;7852;52.228;5.990;2023-08-12T04:50:20;29.2;;;26;;
15500;SDS011;7852;52.228;5.990;2023-08-12T04:51:20;30.3;;;27.1;;
15500;SDS011;7852;52.228;5.990;2023-08-12T04:52:20;31.7;;;28.1;;
15500;SDS011;7852;52.228;5.990;2023-08-12T04:53:20;29;;;26.1;;
15500;SDS011;7852;52.228;5.990;2023-08-12T04:54:20;32.7;;;29.1;;
15500;SDS011;7852;52.228;5.990;2023-08-12T04:55:20;32.1;;;28.8;;
15500;SDS011;7852;52.228;5.990;2023-08-12T04:56:20;35;;;28.4;;
15500;SDS011;7852;52.228;5.990;2023-08-12T04:57:20;32.6;;;29.1;;
15500;SDS011;7852;52.228;5.990;2023-08-12T04:58:20;32;;;28.6;;
15500;SDS011;7852;52.228;5.990;2023-08-12T04:59:20;31.9;;;28.7;;
15500;SDS011;7852;52.228;5.990;2023-08-12T05:00:20;34.7;;;31;;
15500;SDS011;7852;52.228;5.990;2023-08-12T05:01:20;34.7;;;31.5;;
15500;SDS011;7852;52.228;5.990;2023-08-12T05:02:20;35.7;;;32.1;;
15500;SDS011;7852;52.228;5.990;2023-08-12T05:03:20;36.6;;;33.2;;
15500;SDS011;7852;52.228;5.990;2023-08-12T05:04:20;34.5;;;31.3;;
15500;SDS011;7852;52.228;5.990;2023-08-12T05:05:20;41.2;;;37.1;;
15500;SDS011;7852;52.228;5.990;2023-08-12T05:06:20;43.8;;;40;;
15500;SDS011;7852;52.228;5.990;2023-08-12T05:07:20;48.3;;;44.3;;
15500;SDS011;7852;52.228;5.990;2023-08-12T05:08:20;55.7;;;51.4;;
15500;SDS011;7852;52.228;5.990;2023-08-12T05:09:20;57.9;;;53.6;;
15500;SDS011;7852;52.228;5.990;2023-08-12T05:10:20;58.5;;;54.1;;
15500;SDS011;7852;52.228;5.990;2023-08-12T05:11:20;60.5;;;56.2;;
15500;SDS011;7852;52.228;5.990;2023-08-12T05:12:20;57.6;;;52.6;;
15500;SDS011;7852;52.228;5.990;2023-08-12T05:13:20;52.1;;;48;;
15500;SDS011;7852;52.228;5.990;2023-08-12T05:14:20;59.7;;;55.2;;
15500;SDS011;7852;52.228;5.990;2023-08-12T05:15:20;60.9;;;55.8;;
15500;SDS011;7852;52.228;5.990;2023-08-12T05:16:20;61.2;;;56.4;;
15500;SDS011;7852;52.228;5.990;2023-08-12T05:17:20;61;;;56.6;;
15500;SDS011;7852;52.228;5.990;2023-08-12T05:18:21;61.3;;;56.6;;
15500;SDS011;7852;52.228;5.990;2023-08-12T05:19:20;54.4;;;50;;
15500;SDS011;7852;52.228;5.990;2023-08-12T05:20:20;56.2;;;51.9;;
15500;SDS011;7852;52.228;5.990;2023-08-12T05:21:20;61.3;;;56.9;;
15500;SDS011;7852;52.228;5.990;2023-08-12T05:22:20;67;;;62.2;;
15500;SDS011;7852;52.228;5.990;2023-08-12T05:23:20;64.1;;;59.5;;
15500;SDS011;7852;52.228;5.990;2023-08-12T05:24:20;64.5;;;60;;
15500;SDS011;7852;52.228;5.990;2023-08-12T05:25:20;61.1;;;56.6;;
15500;SDS011;7852;52.228;5.990;2023-08-12T05:26:20;59.3;;;55;;
15500;SDS011;7852;52.228;5.990;2023-08-12T05:27:20;56.7;;;52.3;;
15500;SDS011;7852;52.228;5.990;2023-08-12T05:28:20;57.1;;;52.5;;
15500;SDS011;7852;52.228;5.990;2023-08-12T05:29:20;59.6;;;54.9;;
15500;SDS011;7852;52.228;5.990;2023-08-12T05:30:20;60.2;;;55.8;;
15500;SDS011;7852;52.228;5.990;2023-08-12T05:31:20;60.6;;;56.3;;
15500;SDS011;7852;52.228;5.990;2023-08-12T05:32:20;60.4;;;56.1;;
15500;SDS011;7852;52.228;5.990;2023-08-12T05:33:20;54.8;;;50.5;;
15500;SDS011;7852;52.228;5.990;2023-08-12T05:34:20;57.5;;;53.3;;
15500;SDS011;7852;52.228;5.990;2023-08-12T05:35:20;63.8;;;58.9;;
15500;SDS011;7852;52.228;5.990;2023-08-12T05:36:20;56.6;;;52.1;;
15500;SDS011;7852;52.228;5.990;2023-08-12T05:37:20;55;;;50.6;;
15500;SDS011;7852;52.228;5.990;2023-08-12T05:38:20;53;;;49;;
15500;SDS011;7852;52.228;5.990;2023-08-12T05:39:20;53.4;;;49.3;;
15500;SDS011;7852;52.228;5.990;2023-08-12T05:40:20;54.3;;;50;;
15500;SDS011;7852;52.228;5.990;2023-08-12T05:41:20;53.2;;;49.1;;
15500;SDS011;7852;52.228;5.990;2023-08-12T05:42:20;47.8;;;43.7;;
15500;SDS011;7852;52.228;5.990;2023-08-12T05:43:20;51.2;;;47.3;;
15500;SDS011;7852;52.228;5.990;2023-08-12T05:44:20;48.3;;;44.3;;
15500;SDS011;7852;52.228;5.990;2023-08-12T05:45:20;42.8;;;38.9;;
15500;SDS011;7852;52.228;5.990;2023-08-12T05:46:20;45.1;;;41.3;;
15500;SDS011;7852;52.228;5.990;2023-08-12T05:47:20;44.8;;;41.3;;
15500;SDS011;7852;52.228;5.990;2023-08-12T05:48:20;41.5;;;37.7;;
15500;SDS011;7852;52.228;5.990;2023-08-12T05:49:20;40.7;;;36.8;;
15500;SDS011;7852;52.228;5.990;2023-08-12T05:50:20;41.9;;;38.1;;
15500;SDS011;7852;52.228;5.990;2023-08-12T05:51:20;45.1;;;41.6;;
15500;SDS011;7852;52.228;5.990;2023-08-12T05:52:20;44.6;;;40.9;;
15500;SDS011;7852;52.228;5.990;2023-08-12T05:53:21;48.4;;;44.4;;
15500;SDS011;7852;52.228;5.990;2023-08-12T05:54:20;46.7;;;43.1;;
15500;SDS011;7852;52.228;5.990;2023-08-12T05:55:20;47.4;;;43.6;;
15500;SDS011;7852;52.228;5.990;2023-08-12T05:56:20;47.8;;;43.9;;
15500;SDS011;7852;52.228;5.990;2023-08-12T05:57:20;44.2;;;40.5;;
15500;SDS011;7852;52.228;5.990;2023-08-12T05:58:20;47.2;;;43.4;;
15500;SDS011;7852;52.228;5.990;2023-08-12T05:59:20;44.4;;;40.1;;
15500;SDS011;7852;52.228;5.990;2023-08-12T06:00:20;47.8;;;43.8;;
15500;SDS011;7852;52.228;5.990;2023-08-12T06:01:20;46;;;42.2;;
15500;SDS011;7852;52.228;5.990;2023-08-12T06:02:20;52.8;;;48.6;;
15500;SDS011;7852;52.228;5.990;2023-08-12T06:03:20;58.4;;;53.9;;
15500;SDS011;7852;52.228;5.990;2023-08-12T06:04:20;57.2;;;53;;
15500;SDS011;7852;52.228;5.990;2023-08-12T06:05:20;58.9;;;54.8;;
15500;SDS011;7852;52.228;5.990;2023-08-12T06:06:20;60.1;;;55.7;;
15500;SDS011;7852;52.228;5.990;2023-08-12T06:07:20;59.7;;;55.2;;
15500;SDS011;7852;52.228;5.990;2023-08-12T06:08:20;63.8;;;59.3;;
15500;SDS011;7852;52.228;5.990;2023-08-12T06:09:21;67;;;62.7;;
15500;SDS011;7852;52.228;5.990;2023-08-12T06:10:20;66.1;;;61.2;;